sensor_id;sensor_type;location;lat;lon;timestamp;P1;durP1;ratioP1;P2;durP2;ratioP2
64282;SDS011;50497;50.720;-2.084;2023-04-19T00:00:35;28.38;;;13.52;;
64282;SDS011;50497;50.720;-2.084;2023-04-19T00:03:01;27.80;;;13.75;;
64282;SDS011;50497;50.720;-2.084;2023-04-19T00:05:27;31.02;;;13.75;;
64282;SDS011;50497;50.720;-2.084;2023-04-19T00:07:53;23.77;;;9.07;;
64282;SDS011;50497;50.720;-2.084;2023-04-19T00:10:18;26.50;;;13.35;;
64282;SDS011;50497;50.720;-2.084;2023-04-19T00:12:44;27.75;;;13.15;;
64282;SDS011;50497;50.720;-2.084;2023-04-19T00:15:10;27.02;;;13.10;;
64282;SDS011;50497;50.720;-2.084;2023-04-19T00:17:36;27.05;;;13.30;;
64282;SDS011;50497;50.720;-2.084;2023-04-19T00:20:02;28.33;;;12.82;;
64282;SDS011;50497;50.720;-2.084;2023-04-19T00:22:29;28.08;;;13.45;;
64282;SDS011;50497;50.720;-2.084;2023-04-19T00:24:55;21.95;;;9.77;;
64282;SDS011;50497;50.720;-2.084;2023-04-19T00:27:20;18.98;;;8.13;;
64282;SDS011;50497;50.720;-2.084;2023-04-19T00:29:45;28.23;;;12.35;;
64282;SDS011;50497;50.720;-2.084;2023-04-19T00:32:11;25.08;;;12.00;;
64282;SDS011;50497;50.720;-2.084;2023-04-19T00:34:36;22.55;;;10.30;;
64282;SDS011;50497;50.720;-2.084;2023-04-19T00:37:02;25.98;;;12.10;;
64282;SDS011;50497;50.720;-2.084;2023-04-19T00:39:30;18.30;;;7.65;;
64282;SDS011;50497;50.720;-2.084;2023-04-19T00:41:56;23.77;;;9.73;;
64282;SDS011;50497;50.720;-2.084;2023-04-19T00:44:22;27.05;;;11.18;;
64282;SDS011;50497;50.720;-2.084;2023-04-19T00:46:48;23.95;;;11.75;;
64282;SDS011;50497;50.720;-2.084;2023-04-19T00:49:15;23.38;;;11.35;;
64282;SDS011;50497;50.720;-2.084;2023-04-19T00:51:41;24.83;;;11.75;;
64282;SDS011;50497;50.720;-2.084;2023-04-19T00:54:11;26.63;;;11.30;;
64282;SDS011;50497;50.720;-2.084;2023-04-19T00:56:38;22.58;;;10.32;;
64282;SDS011;50497;50.720;-2.084;2023-04-19T01:01:30;23.80;;;9.77;;
64282;SDS011;50497;50.720;-2.084;2023-04-19T01:03:56;20.63;;;10.75;;
64282;SDS011;50497;50.720;-2.084;2023-04-19T01:06:22;19.35;;;8.35;;
64282;SDS011;50497;50.720;-2.084;2023-04-19T01:08:47;23.27;;;10.75;;
64282;SDS011;50497;50.720;-2.084;2023-04-19T01:11:13;25.40;;;11.88;;
64282;SDS011;50497;50.720;-2.084;2023-04-19T01:13:38;24.63;;;12.02;;
64282;SDS011;50497;50.720;-2.084;2023-04-19T01:16:05;25.00;;;12.35;;
64282;SDS011;50497;50.720;-2.084;2023-04-19T01:18:30;25.13;;;11.07;;
64282;SDS011;50497;50.720;-2.084;2023-04-19T01:21:02;25.33;;;11.85;;
64282;SDS011;50497;50.720;-2.084;2023-04-19T01:23:28;25.98;;;12.15;;
64282;SDS011;50497;50.720;-2.084;2023-04-19T01:25:54;25.88;;;12.50;;
64282;SDS011;50497;50.720;-2.084;2023-04-19T01:28:20;21.75;;;10.18;;
64282;SDS011;50497;50.720;-2.084;2023-04-19T01:30:45;27.58;;;13.63;;
64282;SDS011;50497;50.720;-2.084;2023-04-19T01:33:11;27.63;;;11.55;;
64282;SDS011;50497;50.720;-2.084;2023-04-19T01:35:36;26.67;;;12.27;;
64282;SDS011;50497;50.720;-2.084;2023-04-19T01:38:01;19.83;;;9.55;;
64282;SDS011;50497;50.720;-2.084;2023-04-19T01:40:27;26.38;;;13.57;;
64282;SDS011;50497;50.720;-2.084;2023-04-19T01:42:52;27.77;;;10.88;;
64282;SDS011;50497;50.720;-2.084;2023-04-19T01:45:18;25.15;;;11.52;;
64282;SDS011;50497;50.720;-2.084;2023-04-19T01:47:44;27.27;;;12.70;;
64282;SDS011;50497;50.720;-2.084;2023-04-19T01:50:09;29.30;;;12.98;;
64282;SDS011;50497;50.720;-2.084;2023-04-19T01:52:35;28.92;;;12.95;;
64282;SDS011;50497;50.720;-2.084;2023-04-19T01:55:00;28.33;;;11.45;;
64282;SDS011;50497;50.720;-2.084;2023-04-19T01:57:26;29.65;;;13.65;;
64282;SDS011;50497;50.720;-2.084;2023-04-19T01:59:52;28.92;;;12.95;;
64282;SDS011;50497;50.720;-2.084;2023-04-19T02:02:21;25.30;;;12.02;;
64282;SDS011;50497;50.720;-2.084;2023-04-19T02:04:46;34.15;;;14.18;;
64282;SDS011;50497;50.720;-2.084;2023-04-19T02:07:12;28.33;;;11.90;;
64282;SDS011;50497;50.720;-2.084;2023-04-19T02:09:37;19.65;;;8.60;;
64282;SDS011;50497;50.720;-2.084;2023-04-19T02:12:03;35.13;;;15.50;;
64282;SDS011;50497;50.720;-2.084;2023-04-19T02:14:30;33.35;;;14.80;;
64282;SDS011;50497;50.720;-2.084;2023-04-19T02:16:56;30.35;;;14.73;;
64282;SDS011;50497;50.720;-2.084;2023-04-19T02:19:22;24.10;;;10.18;;
64282;SDS011;50497;50.720;-2.084;2023-04-19T02:21:47;23.38;;;8.63;;
64282;SDS011;50497;50.720;-2.084;2023-04-19T02:24:13;23.95;;;10.15;;
64282;SDS011;50497;50.720;-2.084;2023-04-19T02:26:39;37.05;;;15.85;;
64282;SDS011;50497;50.720;-2.084;2023-04-19T02:29:05;23.10;;;9.80;;
64282;SDS011;50497;50.720;-2.084;2023-04-19T02:31:31;36.13;;;16.10;;
64282;SDS011;50497;50.720;-2.084;2023-04-19T02:33:56;29.40;;;12.20;;
64282;SDS011;50497;50.720;-2.084;2023-04-19T02:36:22;38.35;;;16.27;;
64282;SDS011;50497;50.720;-2.084;2023-04-19T02:38:47;32.00;;;13.60;;
64282;SDS011;50497;50.720;-2.084;2023-04-19T02:41:12;34.67;;;16.48;;
64282;SDS011;50497;50.720;-2.084;2023-04-19T02:43:38;31.85;;;13.40;;
64282;SDS011;50497;50.720;-2.084;2023-04-19T02:46:04;38.38;;;17.80;;
64282;SDS011;50497;50.720;-2.084;2023-04-19T02:48:30;34.83;;;15.85;;
64282;SDS011;50497;50.720;-2.084;2023-04-19T02:50:57;37.47;;;16.50;;
64282;SDS011;50497;50.720;-2.084;2023-04-19T02:53:23;34.78;;;15.65;;
64282;SDS011;50497;50.720;-2.084;2023-04-19T02:55:48;36.42;;;16.73;;
64282;SDS011;50497;50.720;-2.084;2023-04-19T02:58:14;27.75;;;11.27;;
64282;SDS011;50497;50.720;-2.084;2023-04-19T03:00:40;30.13;;;12.10;;
64282;SDS011;50497;50.720;-2.084;2023-04-19T03:03:05;38.38;;;16.08;;
64282;SDS011;50497;50.720;-2.084;2023-04-19T03:05:31;37.08;;;15.48;;
64282;SDS011;50497;50.720;-2.084;2023-04-19T03:07:57;41.95;;;17.50;;
64282;SDS011;50497;50.720;-2.084;2023-04-19T03:10:23;38.33;;;16.70;;
64282;SDS011;50497;50.720;-2.084;2023-04-19T03:12:52;39.33;;;17.02;;
64282;SDS011;50497;50.720;-2.084;2023-04-19T03:15:17;38.05;;;16.42;;
64282;SDS011;50497;50.720;-2.084;2023-04-19T03:20:09;35.55;;;15.77;;
64282;SDS011;50497;50.720;-2.084;2023-04-19T03:22:35;34.08;;;13.85;;
64282;SDS011;50497;50.720;-2.084;2023-04-19T03:25:02;41.15;;;17.63;;
64282;SDS011;50497;50.720;-2.084;2023-04-19T03:27:33;39.63;;;17.90;;
64282;SDS011;50497;50.720;-2.084;2023-04-19T03:29:59;40.33;;;16.55;;
64282;SDS011;50497;50.720;-2.084;2023-04-19T03:32:25;40.78;;;15.73;;
64282;SDS011;50497;50.720;-2.084;2023-04-19T03:34:50;39.90;;;18.48;;
64282;SDS011;50497;50.720;-2.084;2023-04-19T03:37:16;40.60;;;17.48;;
64282;SDS011;50497;50.720;-2.084;2023-04-19T03:39:41;38.20;;;18.10;;
64282;SDS011;50497;50.720;-2.084;2023-04-19T03:42:07;40.13;;;17.88;;
64282;SDS011;50497;50.720;-2.084;2023-04-19T03:44:32;41.92;;;17.77;;
64282;SDS011;50497;50.720;-2.084;2023-04-19T03:46:58;39.83;;;17.02;;
64282;SDS011;50497;50.720;-2.084;2023-04-19T03:49:23;35.67;;;15.55;;
64282;SDS011;50497;50.720;-2.084;2023-04-19T03:51:49;35.30;;;13.48;;
64282;SDS011;50497;50.720;-2.084;2023-04-19T03:54:14;35.58;;;13.90;;
64282;SDS011;50497;50.720;-2.084;2023-04-19T03:56:41;39.55;;;15.52;;
64282;SDS011;50497;50.720;-2.084;2023-04-19T03:59:06;43.40;;;19.33;;
64282;SDS011;50497;50.720;-2.084;2023-04-19T04:01:31;36.40;;;15.95;;
64282;SDS011;50497;50.720;-2.084;2023-04-19T04:03:57;44.22;;;18.90;;
64282;SDS011;50497;50.720;-2.084;2023-04-19T04:06:23;40.88;;;17.50;;
64282;SDS011;50497;50.720;-2.084;2023-04-19T04:08:51;43.85;;;19.80;;
64282;SDS011;50497;50.720;-2.084;2023-04-19T04:11:17;41.88;;;17.02;;
64282;SDS011;50497;50.720;-2.084;2023-04-19T04:13:42;45.25;;;18.63;;
64282;SDS011;50497;50.720;-2.084;2023-04-19T04:16:10;41.65;;;19.13;;
64282;SDS011;50497;50.720;-2.084;2023-04-19T04:18:36;37.28;;;15.27;;
64282;SDS011;50497;50.720;-2.084;2023-04-19T04:21:01;41.95;;;18.58;;
64282;SDS011;50497;50.720;-2.084;2023-04-19T04:23:27;33.90;;;14.70;;
64282;SDS011;50497;50.720;-2.084;2023-04-19T04:25:56;43.47;;;17.50;;
64282;SDS011;50497;50.720;-2.084;2023-04-19T04:28:26;41.22;;;18.63;;
64282;SDS011;50497;50.720;-2.084;2023-04-19T04:33:17;37.65;;;16.52;;
64282;SDS011;50497;50.720;-2.084;2023-04-19T04:35:43;43.13;;;18.25;;
64282;SDS011;50497;50.720;-2.084;2023-04-19T04:38:08;45.63;;;18.65;;
64282;SDS011;50497;50.720;-2.084;2023-04-19T04:40:34;43.10;;;19.02;;
64282;SDS011;50497;50.720;-2.084;2023-04-19T04:43:00;41.28;;;17.83;;
64282;SDS011;50497;50.720;-2.084;2023-04-19T04:45:28;37.03;;;14.80;;
64282;SDS011;50497;50.720;-2.084;2023-04-19T04:47:53;43.60;;;18.63;;
64282;SDS011;50497;50.720;-2.084;2023-04-19T04:50:19;35.15;;;14.55;;
64282;SDS011;50497;50.720;-2.084;2023-04-19T04:52:44;40.85;;;17.88;;
64282;SDS011;50497;50.720;-2.084;2023-04-19T04:55:10;41.80;;;17.75;;
64282;SDS011;50497;50.720;-2.084;2023-04-19T04:57:35;42.50;;;19.55;;
64282;SDS011;50497;50.720;-2.084;2023-04-19T05:00:02;40.85;;;16.77;;
64282;SDS011;50497;50.720;-2.084;2023-04-19T05:02:30;46.10;;;18.42;;
64282;SDS011;50497;50.720;-2.084;2023-04-19T05:04:55;33.60;;;13.60;;
64282;SDS011;50497;50.720;-2.084;2023-04-19T05:07:21;41.75;;;18.70;;
64282;SDS011;50497;50.720;-2.084;2023-04-19T05:09:47;43.38;;;18.85;;
64282;SDS011;50497;50.720;-2.084;2023-04-19T05:12:12;41.55;;;18.33;;
64282;SDS011;50497;50.720;-2.084;2023-04-19T05:14:38;39.90;;;18.27;;
64282;SDS011;50497;50.720;-2.084;2023-04-19T05:17:04;40.88;;;17.67;;
64282;SDS011;50497;50.720;-2.084;2023-04-19T05:19:29;29.95;;;11.48;;
64282;SDS011;50497;50.720;-2.084;2023-04-19T05:21:55;39.67;;;17.05;;
64282;SDS011;50497;50.720;-2.084;2023-04-19T05:24:20;42.40;;;16.85;;
64282;SDS011;50497;50.720;-2.084;2023-04-19T05:26:46;41.65;;;18.35;;
64282;SDS011;50497;50.720;-2.084;2023-04-19T05:29:12;42.83;;;17.80;;
64282;SDS011;50497;50.720;-2.084;2023-04-19T05:31:38;31.13;;;12.00;;
64282;SDS011;50497;50.720;-2.084;2023-04-19T05:34:07;44.35;;;18.02;;
64282;SDS011;50497;50.720;-2.084;2023-04-19T05:36:40;43.33;;;18.73;;
64282;SDS011;50497;50.720;-2.084;2023-04-19T05:39:05;45.28;;;19.75;;
64282;SDS011;50497;50.720;-2.084;2023-04-19T05:41:34;42.95;;;18.20;;
64282;SDS011;50497;50.720;-2.084;2023-04-19T05:43:59;40.22;;;16.90;;
64282;SDS011;50497;50.720;-2.084;2023-04-19T05:46:25;42.08;;;18.63;;
64282;SDS011;50497;50.720;-2.084;2023-04-19T05:48:51;41.90;;;18.98;;
64282;SDS011;50497;50.720;-2.084;2023-04-19T05:51:20;42.05;;;17.80;;
64282;SDS011;50497;50.720;-2.084;2023-04-19T05:53:45;41.53;;;18.98;;
64282;SDS011;50497;50.720;-2.084;2023-04-19T05:56:11;40.78;;;18.42;;
64282;SDS011;50497;50.720;-2.084;2023-04-19T05:58:36;43.42;;;18.55;;
64282;SDS011;50497;50.720;-2.084;2023-04-19T06:01:02;42.58;;;19.88;;
64282;SDS011;50497;50.720;-2.084;2023-04-19T06:03:28;42.03;;;20.13;;
64282;SDS011;50497;50.720;-2.084;2023-04-19T06:05:54;53.55;;;22.73;;
64282;SDS011;50497;50.720;-2.084;2023-04-19T06:08:19;50.75;;;22.15;;
64282;SDS011;50497;50.720;-2.084;2023-04-19T06:10:45;53.13;;;21.85;;
64282;SDS011;50497;50.720;-2.084;2023-04-19T06:13:13;55.80;;;23.23;;
64282;SDS011;50497;50.720;-2.084;2023-04-19T06:15:39;51.97;;;21.08;;
64282;SDS011;50497;50.720;-2.084;2023-04-19T06:18:05;67.85;;;25.20;;
64282;SDS011;50497;50.720;-2.084;2023-04-19T06:20:37;53.63;;;22.33;;
64282;SDS011;50497;50.720;-2.084;2023-04-19T06:23:03;42.90;;;17.48;;
64282;SDS011;50497;50.720;-2.084;2023-04-19T06:25:28;54.75;;;22.67;;
64282;SDS011;50497;50.720;-2.084;2023-04-19T06:27:54;51.00;;;21.70;;
64282;SDS011;50497;50.720;-2.084;2023-04-19T06:30:20;56.10;;;23.48;;
64282;SDS011;50497;50.720;-2.084;2023-04-19T06:32:45;54.58;;;22.40;;
64282;SDS011;50497;50.720;-2.084;2023-04-19T06:35:11;62.40;;;24.45;;
64282;SDS011;50497;50.720;-2.084;2023-04-19T06:37:37;52.67;;;22.13;;
64282;SDS011;50497;50.720;-2.084;2023-04-19T06:40:03;55.83;;;24.27;;
64282;SDS011;50497;50.720;-2.084;2023-04-19T06:42:36;58.58;;;23.60;;
64282;SDS011;50497;50.720;-2.084;2023-04-19T06:45:02;60.08;;;25.23;;
64282;SDS011;50497;50.720;-2.084;2023-04-19T06:47:29;53.30;;;22.52;;
64282;SDS011;50497;50.720;-2.084;2023-04-19T06:49:56;58.40;;;25.25;;
64282;SDS011;50497;50.720;-2.084;2023-04-19T06:52:22;57.55;;;22.02;;
64282;SDS011;50497;50.720;-2.084;2023-04-19T06:54:48;57.72;;;24.58;;
64282;SDS011;50497;50.720;-2.084;2023-04-19T06:59:40;57.08;;;23.67;;
64282;SDS011;50497;50.720;-2.084;2023-04-19T07:02:06;61.30;;;25.30;;
64282;SDS011;50497;50.720;-2.084;2023-04-19T07:04:32;59.00;;;22.70;;
64282;SDS011;50497;50.720;-2.084;2023-04-19T07:06:57;60.05;;;25.08;;
64282;SDS011;50497;50.720;-2.084;2023-04-19T07:11:49;62.77;;;25.33;;
64282;SDS011;50497;50.720;-2.084;2023-04-19T07:14:15;59.92;;;26.67;;
64282;SDS011;50497;50.720;-2.084;2023-04-19T07:16:51;57.03;;;24.20;;
64282;SDS011;50497;50.720;-2.084;2023-04-19T07:19:18;55.65;;;23.95;;
64282;SDS011;50497;50.720;-2.084;2023-04-19T07:21:50;58.42;;;24.63;;
64282;SDS011;50497;50.720;-2.084;2023-04-19T07:24:16;57.72;;;24.55;;
64282;SDS011;50497;50.720;-2.084;2023-04-19T07:26:42;59.35;;;25.27;;
64282;SDS011;50497;50.720;-2.084;2023-04-19T07:29:08;61.92;;;25.58;;
64282;SDS011;50497;50.720;-2.084;2023-04-19T07:31:33;61.55;;;24.35;;
64282;SDS011;50497;50.720;-2.084;2023-04-19T07:33:59;59.30;;;24.73;;
64282;SDS011;50497;50.720;-2.084;2023-04-19T07:36:32;61.15;;;25.10;;
64282;SDS011;50497;50.720;-2.084;2023-04-19T07:38:59;61.85;;;24.58;;
64282;SDS011;50497;50.720;-2.084;2023-04-19T07:41:30;57.47;;;25.92;;
64282;SDS011;50497;50.720;-2.084;2023-04-19T07:43:56;39.10;;;17.10;;
64282;SDS011;50497;50.720;-2.084;2023-04-19T07:46:21;56.30;;;23.73;;
64282;SDS011;50497;50.720;-2.084;2023-04-19T07:48:47;58.55;;;24.55;;
64282;SDS011;50497;50.720;-2.084;2023-04-19T07:51:13;56.65;;;24.05;;
64282;SDS011;50497;50.720;-2.084;2023-04-19T07:53:46;55.45;;;23.45;;
64282;SDS011;50497;50.720;-2.084;2023-04-19T07:56:12;54.70;;;24.15;;
64282;SDS011;50497;50.720;-2.084;2023-04-19T07:58:39;57.05;;;23.33;;
64282;SDS011;50497;50.720;-2.084;2023-04-19T08:01:05;57.83;;;24.17;;
64282;SDS011;50497;50.720;-2.084;2023-04-19T08:03:34;52.03;;;23.95;;
64282;SDS011;50497;50.720;-2.084;2023-04-19T08:06:05;43.53;;;19.50;;
64282;SDS011;50497;50.720;-2.084;2023-04-19T08:08:34;50.60;;;22.60;;
64282;SDS011;50497;50.720;-2.084;2023-04-19T08:11:01;49.95;;;21.92;;
64282;SDS011;50497;50.720;-2.084;2023-04-19T08:13:27;53.42;;;24.17;;
64282;SDS011;50497;50.720;-2.084;2023-04-19T08:15:54;43.28;;;18.70;;
64282;SDS011;50497;50.720;-2.084;2023-04-19T08:18:23;50.63;;;22.42;;
64282;SDS011;50497;50.720;-2.084;2023-04-19T08:20:49;38.05;;;17.35;;
64282;SDS011;50497;50.720;-2.084;2023-04-19T08:23:20;46.67;;;21.60;;
64282;SDS011;50497;50.720;-2.084;2023-04-19T08:25:46;46.60;;;21.42;;
64282;SDS011;50497;50.720;-2.084;2023-04-19T08:28:12;46.50;;;20.35;;
64282;SDS011;50497;50.720;-2.084;2023-04-19T08:30:41;50.50;;;24.08;;
64282;SDS011;50497;50.720;-2.084;2023-04-19T08:33:11;42.65;;;17.33;;
64282;SDS011;50497;50.720;-2.084;2023-04-19T08:35:37;44.88;;;22.58;;
64282;SDS011;50497;50.720;-2.084;2023-04-19T08:38:05;39.72;;;15.48;;
64282;SDS011;50497;50.720;-2.084;2023-04-19T08:40:31;34.40;;;14.43;;
64282;SDS011;50497;50.720;-2.084;2023-04-19T08:43:04;43.33;;;19.23;;
64282;SDS011;50497;50.720;-2.084;2023-04-19T08:45:31;45.53;;;22.33;;
64282;SDS011;50497;50.720;-2.084;2023-04-19T08:48:01;46.17;;;20.85;;
64282;SDS011;50497;50.720;-2.084;2023-04-19T08:50:31;41.03;;;19.98;;
64282;SDS011;50497;50.720;-2.084;2023-04-19T08:52:58;45.38;;;21.38;;
64282;SDS011;50497;50.720;-2.084;2023-04-19T08:55:28;43.60;;;21.08;;
64282;SDS011;50497;50.720;-2.084;2023-04-19T08:57:55;38.05;;;19.10;;
64282;SDS011;50497;50.720;-2.084;2023-04-19T09:00:27;41.10;;;20.47;;
64282;SDS011;50497;50.720;-2.084;2023-04-19T09:02:55;34.60;;;14.27;;
64282;SDS011;50497;50.720;-2.084;2023-04-19T09:05:25;36.35;;;19.17;;
64282;SDS011;50497;50.720;-2.084;2023-04-19T09:07:50;34.65;;;17.00;;
64282;SDS011;50497;50.720;-2.084;2023-04-19T09:10:19;32.92;;;16.77;;
64282;SDS011;50497;50.720;-2.084;2023-04-19T09:13:00;33.92;;;16.80;;
64282;SDS011;50497;50.720;-2.084;2023-04-19T09:15:40;32.50;;;17.42;;
64282;SDS011;50497;50.720;-2.084;2023-04-19T09:18:10;33.72;;;17.55;;
64282;SDS011;50497;50.720;-2.084;2023-04-19T09:20:36;32.08;;;16.20;;
64282;SDS011;50497;50.720;-2.084;2023-04-19T09:23:08;30.38;;;15.02;;
64282;SDS011;50497;50.720;-2.084;2023-04-19T09:25:57;30.48;;;15.80;;
64282;SDS011;50497;50.720;-2.084;2023-04-19T09:28:28;32.72;;;15.77;;
64282;SDS011;50497;50.720;-2.084;2023-04-19T09:33:37;34.08;;;17.08;;
64282;SDS011;50497;50.720;-2.084;2023-04-19T09:36:10;34.80;;;17.77;;
64282;SDS011;50497;50.720;-2.084;2023-04-19T09:38:46;33.22;;;17.88;;
64282;SDS011;50497;50.720;-2.084;2023-04-19T09:41:15;29.50;;;15.88;;
64282;SDS011;50497;50.720;-2.084;2023-04-19T09:43:41;28.25;;;13.48;;
64282;SDS011;50497;50.720;-2.084;2023-04-19T09:46:07;30.60;;;16.20;;
64282;SDS011;50497;50.720;-2.084;2023-04-19T09:49:00;41.72;;;12.50;;
64282;SDS011;50497;50.720;-2.084;2023-04-19T09:51:50;29.33;;;16.13;;
64282;SDS011;50497;50.720;-2.084;2023-04-19T09:54:18;30.08;;;15.32;;
64282;SDS011;50497;50.720;-2.084;2023-04-19T09:56:45;30.13;;;16.25;;
64282;SDS011;50497;50.720;-2.084;2023-04-19T10:04:12;27.83;;;16.05;;
64282;SDS011;50497;50.720;-2.084;2023-04-19T10:06:46;25.27;;;12.48;;
64282;SDS011;50497;50.720;-2.084;2023-04-19T10:09:14;26.98;;;15.88;;
64282;SDS011;50497;50.720;-2.084;2023-04-19T10:11:43;27.73;;;15.07;;
64282;SDS011;50497;50.720;-2.084;2023-04-19T10:14:16;26.30;;;15.32;;
64282;SDS011;50497;50.720;-2.084;2023-04-19T10:16:47;28.20;;;14.77;;
64282;SDS011;50497;50.720;-2.084;2023-04-19T10:19:17;28.02;;;16.50;;
64282;SDS011;50497;50.720;-2.084;2023-04-19T10:21:46;28.38;;;15.60;;
64282;SDS011;50497;50.720;-2.084;2023-04-19T10:24:13;26.50;;;15.63;;
64282;SDS011;50497;50.720;-2.084;2023-04-19T10:37:33;27.42;;;15.30;;
64282;SDS011;50497;50.720;-2.084;2023-04-19T10:39:59;24.77;;;15.00;;
64282;SDS011;50497;50.720;-2.084;2023-04-19T10:43:15;24.67;;;13.45;;
64282;SDS011;50497;50.720;-2.084;2023-04-19T10:45:37;22.38;;;13.13;;
64282;SDS011;50497;50.720;-2.084;2023-04-19T10:51:02;26.40;;;14.27;;
64282;SDS011;50497;50.720;-2.084;2023-04-19T10:56:13;24.00;;;13.70;;
64282;SDS011;50497;50.720;-2.084;2023-04-19T11:09:25;19.85;;;11.30;;
64282;SDS011;50497;50.720;-2.084;2023-04-19T11:12:07;20.58;;;12.63;;
64282;SDS011;50497;50.720;-2.084;2023-04-19T11:14:43;20.23;;;11.82;;
64282;SDS011;50497;50.720;-2.084;2023-04-19T11:17:16;18.48;;;9.93;;
64282;SDS011;50497;50.720;-2.084;2023-04-19T11:25:07;18.73;;;10.80;;
64282;SDS011;50497;50.720;-2.084;2023-04-19T11:27:35;20.98;;;11.75;;
64282;SDS011;50497;50.720;-2.084;2023-04-19T11:30:06;18.15;;;10.10;;
64282;SDS011;50497;50.720;-2.084;2023-04-19T11:32:33;19.30;;;11.63;;
64282;SDS011;50497;50.720;-2.084;2023-04-19T11:35:06;21.15;;;12.43;;
64282;SDS011;50497;50.720;-2.084;2023-04-19T11:37:37;23.73;;;11.95;;
64282;SDS011;50497;50.720;-2.084;2023-04-19T11:40:04;21.50;;;11.68;;
64282;SDS011;50497;50.720;-2.084;2023-04-19T11:42:31;18.00;;;10.00;;
64282;SDS011;50497;50.720;-2.084;2023-04-19T11:45:00;18.63;;;10.85;;
64282;SDS011;50497;50.720;-2.084;2023-04-19T11:47:27;18.50;;;10.75;;
64282;SDS011;50497;50.720;-2.084;2023-04-19T11:49:53;18.15;;;10.73;;
64282;SDS011;50497;50.720;-2.084;2023-04-19T11:52:21;19.42;;;10.45;;
64282;SDS011;50497;50.720;-2.084;2023-04-19T11:54:51;17.00;;;10.35;;
64282;SDS011;50497;50.720;-2.084;2023-04-19T11:57:40;16.00;;;9.85;;
64282;SDS011;50497;50.720;-2.084;2023-04-19T12:00:06;16.13;;;9.85;;
64282;SDS011;50497;50.720;-2.084;2023-04-19T12:02:39;16.95;;;10.13;;
64282;SDS011;50497;50.720;-2.084;2023-04-19T12:10:26;15.68;;;9.77;;
64282;SDS011;50497;50.720;-2.084;2023-04-19T12:12:52;14.45;;;8.85;;
64282;SDS011;50497;50.720;-2.084;2023-04-19T12:15:22;12.15;;;8.10;;
64282;SDS011;50497;50.720;-2.084;2023-04-19T12:18:08;13.25;;;8.35;;
64282;SDS011;50497;50.720;-2.084;2023-04-19T12:20:42;12.85;;;8.38;;
64282;SDS011;50497;50.720;-2.084;2023-04-19T12:23:09;12.63;;;7.38;;
64282;SDS011;50497;50.720;-2.084;2023-04-19T12:25:42;12.95;;;7.88;;
64282;SDS011;50497;50.720;-2.084;2023-04-19T12:28:09;11.63;;;7.35;;
64282;SDS011;50497;50.720;-2.084;2023-04-19T12:30:36;11.32;;;6.65;;
64282;SDS011;50497;50.720;-2.084;2023-04-19T12:33:02;10.80;;;7.40;;
64282;SDS011;50497;50.720;-2.084;2023-04-19T12:35:31;13.07;;;7.60;;
64282;SDS011;50497;50.720;-2.084;2023-04-19T12:37:58;12.25;;;6.60;;
64282;SDS011;50497;50.720;-2.084;2023-04-19T12:40:25;13.15;;;8.18;;
64282;SDS011;50497;50.720;-2.084;2023-04-19T12:42:52;12.85;;;7.25;;
64282;SDS011;50497;50.720;-2.084;2023-04-19T12:45:18;12.18;;;7.68;;
64282;SDS011;50497;50.720;-2.084;2023-04-19T12:47:45;12.43;;;7.03;;
64282;SDS011;50497;50.720;-2.084;2023-04-19T12:50:15;12.05;;;7.63;;
64282;SDS011;50497;50.720;-2.084;2023-04-19T12:52:41;13.40;;;7.28;;
64282;SDS011;50497;50.720;-2.084;2023-04-19T12:55:07;10.52;;;6.25;;
64282;SDS011;50497;50.720;-2.084;2023-04-19T12:57:33;12.55;;;7.10;;
64282;SDS011;50497;50.720;-2.084;2023-04-19T13:02:24;12.40;;;7.43;;
64282;SDS011;50497;50.720;-2.084;2023-04-19T13:07:15;12.38;;;6.32;;
64282;SDS011;50497;50.720;-2.084;2023-04-19T13:09:42;11.55;;;6.47;;
64282;SDS011;50497;50.720;-2.084;2023-04-19T13:12:08;11.60;;;7.25;;
64282;SDS011;50497;50.720;-2.084;2023-04-19T13:14:39;11.48;;;6.68;;
64282;SDS011;50497;50.720;-2.084;2023-04-19T13:17:05;11.15;;;6.57;;
64282;SDS011;50497;50.720;-2.084;2023-04-19T13:19:30;10.95;;;6.43;;
64282;SDS011;50497;50.720;-2.084;2023-04-19T13:21:56;11.73;;;6.75;;
64282;SDS011;50497;50.720;-2.084;2023-04-19T13:26:47;11.50;;;7.05;;
64282;SDS011;50497;50.720;-2.084;2023-04-19T13:31:38;10.63;;;6.30;;
64282;SDS011;50497;50.720;-2.084;2023-04-19T13:36:29;12.88;;;7.15;;
64282;SDS011;50497;50.720;-2.084;2023-04-19T13:38:55;12.27;;;7.53;;
64282;SDS011;50497;50.720;-2.084;2023-04-19T13:41:21;11.98;;;7.63;;
64282;SDS011;50497;50.720;-2.084;2023-04-19T13:46:12;17.47;;;7.50;;
64282;SDS011;50497;50.720;-2.084;2023-04-19T13:51:03;13.43;;;8.90;;
64282;SDS011;50497;50.720;-2.084;2023-04-19T13:53:34;13.85;;;8.25;;
64282;SDS011;50497;50.720;-2.084;2023-04-19T13:56:00;12.43;;;8.20;;
64282;SDS011;50497;50.720;-2.084;2023-04-19T14:00:51;13.27;;;8.15;;
64282;SDS011;50497;50.720;-2.084;2023-04-19T14:03:20;12.32;;;8.32;;
64282;SDS011;50497;50.720;-2.084;2023-04-19T14:05:50;14.50;;;7.95;;
64282;SDS011;50497;50.720;-2.084;2023-04-19T14:10:41;13.73;;;8.43;;
64282;SDS011;50497;50.720;-2.084;2023-04-19T14:15:31;13.30;;;8.15;;
64282;SDS011;50497;50.720;-2.084;2023-04-19T14:20:25;12.55;;;7.95;;
64282;SDS011;50497;50.720;-2.084;2023-04-19T14:25:20;13.50;;;8.20;;
64282;SDS011;50497;50.720;-2.084;2023-04-19T14:30:15;11.13;;;7.53;;
64282;SDS011;50497;50.720;-2.084;2023-04-19T14:32:43;11.45;;;6.75;;
64282;SDS011;50497;50.720;-2.084;2023-04-19T14:35:13;15.23;;;7.13;;
64282;SDS011;50497;50.720;-2.084;2023-04-19T14:40:07;12.13;;;7.57;;
64282;SDS011;50497;50.720;-2.084;2023-04-19T14:42:34;12.68;;;7.05;;
64282;SDS011;50497;50.720;-2.084;2023-04-19T14:47:32;14.73;;;7.25;;
64282;SDS011;50497;50.720;-2.084;2023-04-19T14:52:24;13.95;;;7.15;;
64282;SDS011;50497;50.720;-2.084;2023-04-19T14:57:19;13.82;;;8.15;;
64282;SDS011;50497;50.720;-2.084;2023-04-19T14:59:57;15.40;;;8.20;;
64282;SDS011;50497;50.720;-2.084;2023-04-19T15:02:27;12.57;;;7.35;;
64282;SDS011;50497;50.720;-2.084;2023-04-19T15:04:57;13.32;;;8.32;;
64282;SDS011;50497;50.720;-2.084;2023-04-19T15:07:23;15.02;;;8.07;;
64282;SDS011;50497;50.720;-2.084;2023-04-19T15:09:52;13.05;;;7.28;;
64282;SDS011;50497;50.720;-2.084;2023-04-19T15:12:17;12.63;;;7.28;;
64282;SDS011;50497;50.720;-2.084;2023-04-19T15:14:43;13.32;;;7.60;;
64282;SDS011;50497;50.720;-2.084;2023-04-19T15:17:09;11.98;;;8.05;;
64282;SDS011;50497;50.720;-2.084;2023-04-19T15:19:34;12.77;;;7.05;;
64282;SDS011;50497;50.720;-2.084;2023-04-19T15:22:04;13.80;;;8.20;;
64282;SDS011;50497;50.720;-2.084;2023-04-19T15:24:30;11.57;;;7.10;;
64282;SDS011;50497;50.720;-2.084;2023-04-19T15:26:58;12.27;;;7.57;;
64282;SDS011;50497;50.720;-2.084;2023-04-19T15:29:24;12.55;;;7.30;;
64282;SDS011;50497;50.720;-2.084;2023-04-19T15:31:49;13.15;;;7.35;;
64282;SDS011;50497;50.720;-2.084;2023-04-19T15:34:18;12.07;;;7.65;;
64282;SDS011;50497;50.720;-2.084;2023-04-19T15:36:44;12.60;;;7.38;;
64282;SDS011;50497;50.720;-2.084;2023-04-19T15:39:13;15.05;;;7.25;;
64282;SDS011;50497;50.720;-2.084;2023-04-19T15:41:39;12.85;;;6.75;;
64282;SDS011;50497;50.720;-2.084;2023-04-19T15:44:08;12.07;;;6.82;;
64282;SDS011;50497;50.720;-2.084;2023-04-19T15:46:34;12.18;;;7.25;;
64282;SDS011;50497;50.720;-2.084;2023-04-19T15:49:02;12.18;;;7.00;;
64282;SDS011;50497;50.720;-2.084;2023-04-19T15:51:34;11.25;;;7.05;;